sensor_id;sensor_type;location;lat;lon;timestamp;P1;durP1;ratioP1;P2;durP2;ratioP2
20832;SDS011;56075;51.264;7.150;2022-09-03T00:00:08;2.10;;;1.40;;
20832;SDS011;56075;51.264;7.150;2022-09-03T00:10:48;1.92;;;1.10;;
20832;SDS011;56075;51.264;7.150;2022-09-03T00:14:24;2.42;;;1.10;;
20832;SDS011;56075;51.264;7.150;2022-09-03T00:19:21;2.08;;;1.02;;
20832;SDS011;56075;51.264;7.150;2022-09-03T00:22:02;3.72;;;1.20;;
20832;SDS011;56075;51.264;7.150;2022-09-03T00:24:41;1.33;;;1.08;;
20832;SDS011;56075;51.264;7.150;2022-09-03T00:27:18;4.32;;;1.33;;
20832;SDS011;56075;51.264;7.150;2022-09-03T00:29:57;2.53;;;1.08;;
20832;SDS011;56075;51.264;7.150;2022-09-03T00:32:40;1.13;;;1.00;;
20832;SDS011;56075;51.264;7.150;2022-09-03T00:35:26;4.30;;;1.20;;
20832;SDS011;56075;51.264;7.150;2022-09-03T00:38:01;1.35;;;1.05;;
20832;SDS011;56075;51.264;7.150;2022-09-03T00:40:55;3.20;;;1.20;;
20832;SDS011;56075;51.264;7.150;2022-09-03T00:46:18;1.73;;;1.10;;
20832;SDS011;56075;51.264;7.150;2022-09-03T00:51:55;3.42;;;1.27;;
20832;SDS011;56075;51.264;7.150;2022-09-03T00:57:19;3.28;;;1.30;;
20832;SDS011;56075;51.264;7.150;2022-09-03T01:00:06;3.78;;;1.10;;
20832;SDS011;56075;51.264;7.150;2022-09-03T01:08:03;2.03;;;1.10;;
20832;SDS011;56075;51.264;7.150;2022-09-03T01:10:41;2.72;;;1.00;;
20832;SDS011;56075;51.264;7.150;2022-09-03T01:13:30;3.70;;;1.10;;
20832;SDS011;56075;51.264;7.150;2022-09-03T01:18:51;1.77;;;1.10;;
20832;SDS011;56075;51.264;7.150;2022-09-03T01:21:52;3.08;;;0.90;;
20832;SDS011;56075;51.264;7.150;2022-09-03T01:30:40;2.70;;;0.95;;
20832;SDS011;56075;51.264;7.150;2022-09-03T01:38:50;2.22;;;1.00;;
20832;SDS011;56075;51.264;7.150;2022-09-03T01:41:29;2.28;;;0.80;;
20832;SDS011;56075;51.264;7.150;2022-09-03T01:44:40;1.50;;;0.90;;
20832;SDS011;56075;51.264;7.150;2022-09-03T01:50:03;2.50;;;0.90;;
20832;SDS011;56075;51.264;7.150;2022-09-03T01:52:58;1.50;;;1.05;;
20832;SDS011;56075;51.264;7.150;2022-09-03T01:55:53;1.35;;;0.90;;
20832;SDS011;56075;51.264;7.150;2022-09-03T01:58:53;2.13;;;1.08;;
20832;SDS011;56075;51.264;7.150;2022-09-03T02:01:38;2.25;;;1.00;;
20832;SDS011;56075;51.264;7.150;2022-09-03T02:04:22;2.17;;;1.00;;
20832;SDS011;56075;51.264;7.150;2022-09-03T02:06:55;3.42;;;0.90;;
20832;SDS011;56075;51.264;7.150;2022-09-03T02:09:29;2.20;;;0.90;;
20832;SDS011;56075;51.264;7.150;2022-09-03T02:12:02;2.05;;;0.90;;
20832;SDS011;56075;51.264;7.150;2022-09-03T02:14:45;1.23;;;0.80;;
20832;SDS011;56075;51.264;7.150;2022-09-03T02:17:16;3.40;;;0.95;;
20832;SDS011;56075;51.264;7.150;2022-09-03T02:19:47;1.27;;;0.98;;
20832;SDS011;56075;51.264;7.150;2022-09-03T02:22:19;1.30;;;0.80;;
20832;SDS011;56075;51.264;7.150;2022-09-03T02:24:51;2.42;;;0.80;;
20832;SDS011;56075;51.264;7.150;2022-09-03T02:27:22;2.17;;;0.93;;
20832;SDS011;56075;51.264;7.150;2022-09-03T02:29:53;2.20;;;0.85;;
20832;SDS011;56075;51.264;7.150;2022-09-03T02:32:25;2.45;;;0.90;;
20832;SDS011;56075;51.264;7.150;2022-09-03T02:34:57;1.58;;;0.85;;
20832;SDS011;56075;51.264;7.150;2022-09-03T02:37:29;1.92;;;0.95;;
20832;SDS011;56075;51.264;7.150;2022-09-03T02:40:00;1.73;;;1.00;;
20832;SDS011;56075;51.264;7.150;2022-09-03T02:42:35;1.38;;;0.90;;
20832;SDS011;56075;51.264;7.150;2022-09-03T02:48:11;1.73;;;0.90;;
20832;SDS011;56075;51.264;7.150;2022-09-03T02:50:46;4.13;;;0.95;;
20832;SDS011;56075;51.264;7.150;2022-09-03T02:53:17;1.05;;;0.85;;
20832;SDS011;56075;51.264;7.150;2022-09-03T02:55:48;1.20;;;0.85;;
20832;SDS011;56075;51.264;7.150;2022-09-03T02:58:19;1.77;;;1.00;;
20832;SDS011;56075;51.264;7.150;2022-09-03T03:00:51;1.52;;;0.90;;
20832;SDS011;56075;51.264;7.150;2022-09-03T03:03:22;1.25;;;0.90;;
20832;SDS011;56075;51.264;7.150;2022-09-03T03:05:55;1.65;;;1.00;;
20832;SDS011;56075;51.264;7.150;2022-09-03T03:08:28;2.25;;;0.93;;
20832;SDS011;56075;51.264;7.150;2022-09-03T03:10:59;3.75;;;1.20;;
20832;SDS011;56075;51.264;7.150;2022-09-03T03:13:32;1.38;;;0.90;;
20832;SDS011;56075;51.264;7.150;2022-09-03T03:16:04;1.00;;;0.90;;
20832;SDS011;56075;51.264;7.150;2022-09-03T03:18:35;4.05;;;0.80;;
20832;SDS011;56075;51.264;7.150;2022-09-03T03:21:10;1.23;;;1.13;;
20832;SDS011;56075;51.264;7.150;2022-09-03T03:23:44;3.47;;;0.88;;
20832;SDS011;56075;51.264;7.150;2022-09-03T03:26:16;3.47;;;0.98;;
20832;SDS011;56075;51.264;7.150;2022-09-03T03:28:49;1.60;;;0.90;;
20832;SDS011;56075;51.264;7.150;2022-09-03T03:31:26;2.35;;;1.00;;
20832;SDS011;56075;51.264;7.150;2022-09-03T03:33:58;2.58;;;0.70;;
20832;SDS011;56075;51.264;7.150;2022-09-03T03:36:32;4.43;;;1.10;;
20832;SDS011;56075;51.264;7.150;2022-09-03T03:39:03;2.50;;;0.90;;
20832;SDS011;56075;51.264;7.150;2022-09-03T03:41:35;2.00;;;0.90;;
20832;SDS011;56075;51.264;7.150;2022-09-03T03:44:07;1.35;;;0.90;;
20832;SDS011;56075;51.264;7.150;2022-09-03T03:46:39;1.75;;;1.00;;
20832;SDS011;56075;51.264;7.150;2022-09-03T03:49:11;1.25;;;0.82;;
20832;SDS011;56075;51.264;7.150;2022-09-03T03:51:42;1.67;;;0.90;;
20832;SDS011;56075;51.264;7.150;2022-09-03T03:54:13;1.25;;;1.00;;
20832;SDS011;56075;51.264;7.150;2022-09-03T03:56:44;1.00;;;0.85;;
20832;SDS011;56075;51.264;7.150;2022-09-03T03:59:15;1.60;;;1.00;;
20832;SDS011;56075;51.264;7.150;2022-09-03T04:01:46;1.35;;;0.93;;
20832;SDS011;56075;51.264;7.150;2022-09-03T04:04:20;1.52;;;0.95;;
20832;SDS011;56075;51.264;7.150;2022-09-03T04:06:51;1.10;;;0.90;;
20832;SDS011;56075;51.264;7.150;2022-09-03T04:09:22;1.27;;;0.90;;
20832;SDS011;56075;51.264;7.150;2022-09-03T04:11:53;2.30;;;1.00;;
20832;SDS011;56075;51.264;7.150;2022-09-03T04:14:27;2.10;;;1.10;;
20832;SDS011;56075;51.264;7.150;2022-09-03T04:16:58;4.07;;;1.20;;
20832;SDS011;56075;51.264;7.150;2022-09-03T04:19:29;1.60;;;1.10;;
20832;SDS011;56075;51.264;7.150;2022-09-03T04:22:00;1.83;;;1.00;;
20832;SDS011;56075;51.264;7.150;2022-09-03T04:24:33;1.65;;;1.10;;
20832;SDS011;56075;51.264;7.150;2022-09-03T04:27:05;2.15;;;1.00;;
20832;SDS011;56075;51.264;7.150;2022-09-03T04:29:36;2.47;;;1.00;;
20832;SDS011;56075;51.264;7.150;2022-09-03T04:32:07;5.07;;;1.10;;
20832;SDS011;56075;51.264;7.150;2022-09-03T04:34:57;3.33;;;1.10;;
20832;SDS011;56075;51.264;7.150;2022-09-03T04:37:28;3.17;;;1.05;;
20832;SDS011;56075;51.264;7.150;2022-09-03T04:39:59;1.83;;;1.08;;
20832;SDS011;56075;51.264;7.150;2022-09-03T04:42:30;1.48;;;1.00;;
20832;SDS011;56075;51.264;7.150;2022-09-03T04:45:01;5.97;;;1.10;;
20832;SDS011;56075;51.264;7.150;2022-09-03T04:47:32;2.45;;;0.85;;
20832;SDS011;56075;51.264;7.150;2022-09-03T04:50:06;1.88;;;1.00;;
20832;SDS011;56075;51.264;7.150;2022-09-03T04:52:38;1.88;;;1.02;;
20832;SDS011;56075;51.264;7.150;2022-09-03T04:55:09;2.67;;;1.15;;
20832;SDS011;56075;51.264;7.150;2022-09-03T04:57:41;2.55;;;1.00;;
20832;SDS011;56075;51.264;7.150;2022-09-03T05:00:12;1.40;;;1.00;;
20832;SDS011;56075;51.264;7.150;2022-09-03T05:02:43;1.13;;;0.80;;
20832;SDS011;56075;51.264;7.150;2022-09-03T05:05:18;1.58;;;0.88;;
20832;SDS011;56075;51.264;7.150;2022-09-03T05:07:49;2.38;;;1.00;;
20832;SDS011;56075;51.264;7.150;2022-09-03T05:10:21;2.65;;;1.20;;
20832;SDS011;56075;51.264;7.150;2022-09-03T05:12:57;2.47;;;1.13;;
20832;SDS011;56075;51.264;7.150;2022-09-03T05:15:32;2.35;;;1.20;;
20832;SDS011;56075;51.264;7.150;2022-09-03T05:18:04;3.65;;;1.30;;
20832;SDS011;56075;51.264;7.150;2022-09-03T05:20:35;2.95;;;0.90;;
20832;SDS011;56075;51.264;7.150;2022-09-03T05:23:06;1.65;;;1.30;;
20832;SDS011;56075;51.264;7.150;2022-09-03T05:25:37;2.05;;;0.98;;
20832;SDS011;56075;51.264;7.150;2022-09-03T05:28:08;2.47;;;0.98;;
20832;SDS011;56075;51.264;7.150;2022-09-03T05:30:40;2.33;;;0.90;;
20832;SDS011;56075;51.264;7.150;2022-09-03T05:33:11;2.05;;;1.08;;
20832;SDS011;56075;51.264;7.150;2022-09-03T05:35:44;2.22;;;1.10;;
20832;SDS011;56075;51.264;7.150;2022-09-03T05:38:15;2.38;;;1.25;;
20832;SDS011;56075;51.264;7.150;2022-09-03T05:40:47;3.80;;;1.35;;
20832;SDS011;56075;51.264;7.150;2022-09-03T05:43:18;2.05;;;1.25;;
20832;SDS011;56075;51.264;7.150;2022-09-03T05:45:51;2.17;;;1.10;;
20832;SDS011;56075;51.264;7.150;2022-09-03T05:48:26;3.72;;;1.30;;
20832;SDS011;56075;51.264;7.150;2022-09-03T05:50:59;2.33;;;1.08;;
20832;SDS011;56075;51.264;7.150;2022-09-03T05:53:35;1.40;;;0.90;;
20832;SDS011;56075;51.264;7.150;2022-09-03T05:56:14;1.70;;;1.00;;
20832;SDS011;56075;51.264;7.150;2022-09-03T05:58:53;3.60;;;1.40;;
20832;SDS011;56075;51.264;7.150;2022-09-03T06:01:27;2.88;;;1.00;;
20832;SDS011;56075;51.264;7.150;2022-09-03T06:06:34;2.42;;;1.30;;
20832;SDS011;56075;51.264;7.150;2022-09-03T06:09:10;2.78;;;1.20;;
20832;SDS011;56075;51.264;7.150;2022-09-03T06:11:43;2.97;;;1.20;;
20832;SDS011;56075;51.264;7.150;2022-09-03T06:14:15;3.40;;;1.25;;
20832;SDS011;56075;51.264;7.150;2022-09-03T06:16:47;2.03;;;1.20;;
20832;SDS011;56075;51.264;7.150;2022-09-03T06:19:19;4.57;;;1.92;;
20832;SDS011;56075;51.264;7.150;2022-09-03T06:21:50;4.80;;;1.40;;
20832;SDS011;56075;51.264;7.150;2022-09-03T06:24:21;5.50;;;1.95;;
20832;SDS011;56075;51.264;7.150;2022-09-03T06:26:53;4.03;;;1.80;;
20832;SDS011;56075;51.264;7.150;2022-09-03T06:29:24;3.80;;;1.85;;
20832;SDS011;56075;51.264;7.150;2022-09-03T06:31:55;4.85;;;1.50;;
20832;SDS011;56075;51.264;7.150;2022-09-03T06:34:26;2.33;;;1.48;;
20832;SDS011;56075;51.264;7.150;2022-09-03T06:36:58;2.92;;;1.10;;
20832;SDS011;56075;51.264;7.150;2022-09-03T06:39:29;3.40;;;1.40;;
20832;SDS011;56075;51.264;7.150;2022-09-03T06:42:00;1.35;;;0.80;;
20832;SDS011;56075;51.264;7.150;2022-09-03T06:44:39;4.35;;;1.88;;
20832;SDS011;56075;51.264;7.150;2022-09-03T06:47:10;5.88;;;1.33;;
20832;SDS011;56075;51.264;7.150;2022-09-03T06:49:41;2.30;;;1.10;;
20832;SDS011;56075;51.264;7.150;2022-09-03T06:52:14;1.55;;;1.08;;
20832;SDS011;56075;51.264;7.150;2022-09-03T06:54:45;2.30;;;1.15;;
20832;SDS011;56075;51.264;7.150;2022-09-03T06:57:17;2.38;;;1.30;;
20832;SDS011;56075;51.264;7.150;2022-09-03T06:59:48;2.17;;;1.20;;
20832;SDS011;56075;51.264;7.150;2022-09-03T07:02:20;2.72;;;1.20;;
20832;SDS011;56075;51.264;7.150;2022-09-03T07:04:52;1.70;;;0.90;;
20832;SDS011;56075;51.264;7.150;2022-09-03T07:07:23;1.20;;;0.90;;
20832;SDS011;56075;51.264;7.150;2022-09-03T07:09:54;2.33;;;1.20;;
20832;SDS011;56075;51.264;7.150;2022-09-03T07:12:25;1.90;;;1.30;;
20832;SDS011;56075;51.264;7.150;2022-09-03T07:14:57;6.30;;;3.20;;
20832;SDS011;56075;51.264;7.150;2022-09-03T07:17:28;1.67;;;1.10;;
20832;SDS011;56075;51.264;7.150;2022-09-03T07:19:59;2.65;;;1.55;;
20832;SDS011;56075;51.264;7.150;2022-09-03T07:22:30;2.55;;;1.17;;
20832;SDS011;56075;51.264;7.150;2022-09-03T07:25:01;3.72;;;1.10;;
20832;SDS011;56075;51.264;7.150;2022-09-03T07:27:33;1.70;;;1.30;;
20832;SDS011;56075;51.264;7.150;2022-09-03T07:30:04;1.60;;;1.10;;
20832;SDS011;56075;51.264;7.150;2022-09-03T07:32:39;3.25;;;1.17;;
20832;SDS011;56075;51.264;7.150;2022-09-03T07:35:10;1.42;;;1.10;;
20832;SDS011;56075;51.264;7.150;2022-09-03T07:37:44;1.45;;;0.90;;
20832;SDS011;56075;51.264;7.150;2022-09-03T07:40:16;1.67;;;1.00;;
20832;SDS011;56075;51.264;7.150;2022-09-03T07:42:55;3.03;;;1.00;;
20832;SDS011;56075;51.264;7.150;2022-09-03T07:45:28;4.13;;;1.20;;
20832;SDS011;56075;51.264;7.150;2022-09-03T07:48:00;1.90;;;0.82;;
20832;SDS011;56075;51.264;7.150;2022-09-03T07:50:31;2.55;;;1.10;;
20832;SDS011;56075;51.264;7.150;2022-09-03T07:53:08;3.92;;;1.20;;
20832;SDS011;56075;51.264;7.150;2022-09-03T07:55:39;1.88;;;1.15;;
20832;SDS011;56075;51.264;7.150;2022-09-03T07:58:10;2.22;;;0.95;;
20832;SDS011;56075;51.264;7.150;2022-09-03T08:00:43;3.30;;;0.95;;
20832;SDS011;56075;51.264;7.150;2022-09-03T08:03:14;2.75;;;1.02;;
20832;SDS011;56075;51.264;7.150;2022-09-03T08:05:46;1.77;;;1.13;;
20832;SDS011;56075;51.264;7.150;2022-09-03T08:08:17;6.72;;;2.22;;
20832;SDS011;56075;51.264;7.150;2022-09-03T08:10:48;2.85;;;1.52;;
20832;SDS011;56075;51.264;7.150;2022-09-03T08:13:20;1.67;;;1.08;;
20832;SDS011;56075;51.264;7.150;2022-09-03T08:15:54;2.63;;;1.30;;
20832;SDS011;56075;51.264;7.150;2022-09-03T08:18:26;6.07;;;1.10;;
20832;SDS011;56075;51.264;7.150;2022-09-03T08:21:01;3.47;;;1.20;;
20832;SDS011;56075;51.264;7.150;2022-09-03T08:23:46;3.10;;;1.20;;
20832;SDS011;56075;51.264;7.150;2022-09-03T08:26:22;2.60;;;1.30;;
20832;SDS011;56075;51.264;7.150;2022-09-03T08:28:53;3.35;;;1.40;;
20832;SDS011;56075;51.264;7.150;2022-09-03T08:31:25;1.85;;;1.20;;
20832;SDS011;56075;51.264;7.150;2022-09-03T08:33:58;3.92;;;1.17;;
20832;SDS011;56075;51.264;7.150;2022-09-03T08:36:33;3.05;;;1.10;;
20832;SDS011;56075;51.264;7.150;2022-09-03T08:39:06;3.75;;;1.15;;
20832;SDS011;56075;51.264;7.150;2022-09-03T08:42:14;4.28;;;1.10;;
20832;SDS011;56075;51.264;7.150;2022-09-03T08:44:59;3.35;;;1.10;;
20832;SDS011;56075;51.264;7.150;2022-09-03T08:47:33;2.88;;;1.10;;
20832;SDS011;56075;51.264;7.150;2022-09-03T08:50:14;2.53;;;1.10;;
20832;SDS011;56075;51.264;7.150;2022-09-03T08:53:06;1.25;;;1.02;;
20832;SDS011;56075;51.264;7.150;2022-09-03T08:55:49;2.20;;;1.13;;
20832;SDS011;56075;51.264;7.150;2022-09-03T08:58:25;2.53;;;1.10;;
20832;SDS011;56075;51.264;7.150;2022-09-03T09:01:03;3.58;;;1.10;;
20832;SDS011;56075;51.264;7.150;2022-09-03T09:21:01;1.73;;;1.10;;
20832;SDS011;56075;51.264;7.150;2022-09-03T09:23:45;3.17;;;1.30;;
20832;SDS011;56075;51.264;7.150;2022-09-03T09:26:19;1.90;;;1.27;;
20832;SDS011;56075;51.264;7.150;2022-09-03T09:29:02;1.48;;;1.20;;
20832;SDS011;56075;51.264;7.150;2022-09-03T09:31:39;2.10;;;1.10;;
20832;SDS011;56075;51.264;7.150;2022-09-03T09:34:14;2.22;;;1.27;;
20832;SDS011;56075;51.264;7.150;2022-09-03T09:36:47;4.20;;;1.70;;
20832;SDS011;56075;51.264;7.150;2022-09-03T09:39:21;3.35;;;1.30;;
20832;SDS011;56075;51.264;7.150;2022-09-03T09:42:00;6.95;;;1.38;;
20832;SDS011;56075;51.264;7.150;2022-09-03T09:44:40;2.45;;;1.30;;
20832;SDS011;56075;51.264;7.150;2022-09-03T09:47:35;4.28;;;1.15;;
20832;SDS011;56075;51.264;7.150;2022-09-03T09:50:18;3.38;;;1.27;;
20832;SDS011;56075;51.264;7.150;2022-09-03T09:53:06;5.35;;;1.17;;
20832;SDS011;56075;51.264;7.150;2022-09-03T09:55:47;2.67;;;1.27;;
20832;SDS011;56075;51.264;7.150;2022-09-03T09:58:24;2.03;;;1.10;;
20832;SDS011;56075;51.264;7.150;2022-09-03T10:01:04;4.45;;;1.40;;
20832;SDS011;56075;51.264;7.150;2022-09-03T10:03:55;2.97;;;1.20;;
20832;SDS011;56075;51.264;7.150;2022-09-03T10:06:28;2.08;;;1.30;;
20832;SDS011;56075;51.264;7.150;2022-09-03T10:09:20;2.60;;;1.13;;
20832;SDS011;56075;51.264;7.150;2022-09-03T10:12:01;2.72;;;1.40;;
20832;SDS011;56075;51.264;7.150;2022-09-03T10:14:37;2.92;;;1.30;;
20832;SDS011;56075;51.264;7.150;2022-09-03T10:17:29;1.70;;;1.20;;
20832;SDS011;56075;51.264;7.150;2022-09-03T10:20:33;2.40;;;1.40;;
20832;SDS011;56075;51.264;7.150;2022-09-03T10:23:21;3.17;;;1.10;;
20832;SDS011;56075;51.264;7.150;2022-09-03T10:28:37;1.90;;;1.30;;
20832;SDS011;56075;51.264;7.150;2022-09-03T10:34:17;3.92;;;1.30;;
20832;SDS011;56075;51.264;7.150;2022-09-03T10:37:10;4.07;;;1.40;;
20832;SDS011;56075;51.264;7.150;2022-09-03T10:42:37;2.78;;;1.50;;
20832;SDS011;56075;51.264;7.150;2022-09-03T10:45:16;2.20;;;1.30;;
20832;SDS011;56075;51.264;7.150;2022-09-03T10:51:23;2.05;;;1.30;;
20832;SDS011;56075;51.264;7.150;2022-09-03T10:56:55;2.60;;;1.40;;
20832;SDS011;56075;51.264;7.150;2022-09-03T11:05:21;4.80;;;1.40;;
20832;SDS011;56075;51.264;7.150;2022-09-03T11:08:04;2.17;;;1.40;;
20832;SDS011;56075;51.264;7.150;2022-09-03T11:10:47;3.72;;;1.70;;
20832;SDS011;56075;51.264;7.150;2022-09-03T11:13:25;4.57;;;1.60;;
20832;SDS011;56075;51.264;7.150;2022-09-03T11:16:05;3.22;;;1.35;;
20832;SDS011;56075;51.264;7.150;2022-09-03T11:18:54;2.70;;;1.60;;
20832;SDS011;56075;51.264;7.150;2022-09-03T11:21:35;1.60;;;1.17;;
20832;SDS011;56075;51.264;7.150;2022-09-03T11:26:46;3.90;;;2.20;;
20832;SDS011;56075;51.264;7.150;2022-09-03T11:29:33;8.00;;;1.80;;
20832;SDS011;56075;51.264;7.150;2022-09-03T11:32:17;3.97;;;1.70;;
20832;SDS011;56075;51.264;7.150;2022-09-03T11:34:53;2.28;;;1.60;;
20832;SDS011;56075;51.264;7.150;2022-09-03T11:42:42;4.22;;;1.50;;
20832;SDS011;56075;51.264;7.150;2022-09-03T11:47:49;3.38;;;1.90;;
20832;SDS011;56075;51.264;7.150;2022-09-03T11:50:22;2.55;;;1.88;;
20832;SDS011;56075;51.264;7.150;2022-09-03T11:53:07;2.88;;;2.10;;
20832;SDS011;56075;51.264;7.150;2022-09-03T11:56:30;4.57;;;1.70;;
20832;SDS011;56075;51.264;7.150;2022-09-03T11:58:36;4.13;;;1.85;;
20832;SDS011;56075;51.264;7.150;2022-09-03T12:01:15;7.97;;;1.85;;
20832;SDS011;56075;51.264;7.150;2022-09-03T12:03:57;3.75;;;1.50;;
20832;SDS011;56075;51.264;7.150;2022-09-03T12:06:48;1.77;;;1.50;;
20832;SDS011;56075;51.264;7.150;2022-09-03T12:15:35;6.03;;;1.90;;
20832;SDS011;56075;51.264;7.150;2022-09-03T12:18:21;4.50;;;1.90;;
20832;SDS011;56075;51.264;7.150;2022-09-03T12:23:29;3.38;;;1.80;;
20832;SDS011;56075;51.264;7.150;2022-09-03T12:26:24;3.72;;;1.98;;
20832;SDS011;56075;51.264;7.150;2022-09-03T12:28:57;5.25;;;2.83;;
20832;SDS011;56075;51.264;7.150;2022-09-03T12:31:30;2.80;;;1.90;;
20832;SDS011;56075;51.264;7.150;2022-09-03T12:34:08;5.13;;;1.77;;
20832;SDS011;56075;51.264;7.150;2022-09-03T12:37:00;3.35;;;1.90;;
20832;SDS011;56075;51.264;7.150;2022-09-03T12:39:31;2.78;;;1.58;;
20832;SDS011;56075;51.264;7.150;2022-09-03T12:42:04;2.60;;;1.80;;
20832;SDS011;56075;51.264;7.150;2022-09-03T12:44:38;4.15;;;2.10;;
20832;SDS011;56075;51.264;7.150;2022-09-03T12:47:11;3.85;;;1.70;;
20832;SDS011;56075;51.264;7.150;2022-09-03T12:49:45;2.50;;;1.80;;
20832;SDS011;56075;51.264;7.150;2022-09-03T12:52:25;4.30;;;1.95;;
20832;SDS011;56075;51.264;7.150;2022-09-03T12:55:07;4.10;;;2.42;;
20832;SDS011;56075;51.264;7.150;2022-09-03T12:58:07;3.28;;;2.00;;
20832;SDS011;56075;51.264;7.150;2022-09-03T13:00:44;2.60;;;1.83;;
20832;SDS011;56075;51.264;7.150;2022-09-03T13:06:18;4.72;;;2.17;;
20832;SDS011;56075;51.264;7.150;2022-09-03T13:11:34;4.22;;;2.00;;
20832;SDS011;56075;51.264;7.150;2022-09-03T13:14:10;4.03;;;2.10;;
20832;SDS011;56075;51.264;7.150;2022-09-03T13:19:17;3.08;;;2.40;;
20832;SDS011;56075;51.264;7.150;2022-09-03T13:28:02;3.13;;;2.10;;
20832;SDS011;56075;51.264;7.150;2022-09-03T13:30:42;2.53;;;2.10;;
20832;SDS011;56075;51.264;7.150;2022-09-03T13:33:39;2.85;;;2.20;;
20832;SDS011;56075;51.264;7.150;2022-09-03T13:36:18;3.45;;;1.83;;
20832;SDS011;56075;51.264;7.150;2022-09-03T13:41:40;2.88;;;1.90;;
20832;SDS011;56075;51.264;7.150;2022-09-03T13:44:17;2.17;;;1.70;;
20832;SDS011;56075;51.264;7.150;2022-09-03T13:47:44;3.38;;;2.30;;
20832;SDS011;56075;51.264;7.150;2022-09-03T13:50:07;2.95;;;2.20;;
20832;SDS011;56075;51.264;7.150;2022-09-03T13:53:08;5.13;;;3.10;;
20832;SDS011;56075;51.264;7.150;2022-09-03T13:55:43;2.65;;;2.10;;
20832;SDS011;56075;51.264;7.150;2022-09-03T13:58:23;2.85;;;2.65;;
20832;SDS011;56075;51.264;7.150;2022-09-03T14:06:40;4.68;;;3.22;;
20832;SDS011;56075;51.264;7.150;2022-09-03T14:12:16;4.18;;;3.30;;
20832;SDS011;56075;51.264;7.150;2022-09-03T14:15:15;3.15;;;2.30;;
20832;SDS011;56075;51.264;7.150;2022-09-03T14:17:58;4.07;;;2.60;;
20832;SDS011;56075;51.264;7.150;2022-09-03T14:20:43;5.63;;;2.70;;
20832;SDS011;56075;51.264;7.150;2022-09-03T14:26:04;9.52;;;2.45;;
20832;SDS011;56075;51.264;7.150;2022-09-03T14:28:38;4.65;;;2.80;;
20832;SDS011;56075;51.264;7.150;2022-09-03T14:31:21;3.45;;;2.30;;
20832;SDS011;56075;51.264;7.150;2022-09-03T14:37:04;7.93;;;2.58;;
20832;SDS011;56075;51.264;7.150;2022-09-03T14:39:51;3.30;;;2.25;;
20832;SDS011;56075;51.264;7.150;2022-09-03T14:48:21;13.30;;;2.70;;
20832;SDS011;56075;51.264;7.150;2022-09-03T14:54:25;3.03;;;1.98;;
20832;SDS011;56075;51.264;7.150;2022-09-03T15:00:19;4.95;;;1.90;;
20832;SDS011;56075;51.264;7.150;2022-09-03T15:05:52;2.97;;;1.70;;
20832;SDS011;56075;51.264;7.150;2022-09-03T15:11:45;2.45;;;1.75;;
20832;SDS011;56075;51.264;7.150;2022-09-03T15:14:28;3.67;;;2.00;;
20832;SDS011;56075;51.264;7.150;2022-09-03T15:23:05;2.65;;;1.67;;
20832;SDS011;56075;51.264;7.150;2022-09-03T15:29:07;2.60;;;1.80;;
20832;SDS011;56075;51.264;7.150;2022-09-03T15:32:11;4.28;;;2.20;;
20832;SDS011;56075;51.264;7.150;2022-09-03T15:38:04;4.28;;;2.70;;
20832;SDS011;56075;51.264;7.150;2022-09-03T15:40:41;3.63;;;2.38;;
20832;SDS011;56075;51.264;7.150;2022-09-03T15:43:24;3.65;;;1.80;;
20832;SDS011;56075;51.264;7.150;2022-09-03T15:46:03;2.85;;;1.67;;
20832;SDS011;56075;51.264;7.150;2022-09-03T15:48:44;4.95;;;1.63;;
20832;SDS011;56075;51.264;7.150;2022-09-03T15:51:30;2.80;;;1.40;;
20832;SDS011;56075;51.264;7.150;2022-09-03T15:54:21;8.90;;;2.08;;
20832;SDS011;56075;51.264;7.150;2022-09-03T15:59:57;3.72;;;1.98;;
20832;SDS011;56075;51.264;7.150;2022-09-03T16:05:27;2.05;;;1.80;;
20832;SDS011;56075;51.264;7.150;2022-09-03T16:08:16;2.42;;;1.77;;
20832;SDS011;56075;51.264;7.150;2022-09-03T16:10:56;4.10;;;1.80;;
20832;SDS011;56075;51.264;7.150;2022-09-03T16:22:21;2.20;;;1.70;;
20832;SDS011;56075;51.264;7.150;2022-09-03T16:25:43;2.40;;;1.95;;
20832;SDS011;56075;51.264;7.150;2022-09-03T16:28:44;2.58;;;1.77;;
20832;SDS011;56075;51.264;7.150;2022-09-03T16:33:55;3.97;;;1.90;;
20832;SDS011;56075;51.264;7.150;2022-09-03T16:36:48;4.03;;;2.95;;
20832;SDS011;56075;51.264;7.150;2022-09-03T16:39:40;3.25;;;1.90;;
20832;SDS011;56075;51.264;7.150;2022-09-03T16:50:55;3.50;;;2.35;;
20832;SDS011;56075;51.264;7.150;2022-09-03T17:13:02;4.38;;;2.65;;
20832;SDS011;56075;51.264;7.150;2022-09-03T17:15:42;10.30;;;2.90;;
20832;SDS011;56075;51.264;7.150;2022-09-03T17:19:03;8.43;;;3.38;;
20832;SDS011;56075;51.264;7.150;2022-09-03T17:32:28;10.55;;;4.03;;
20832;SDS011;56075;51.264;7.150;2022-09-03T17:40:55;12.98;;;4.32;;
20832;SDS011;56075;51.264;7.150;2022-09-03T17:43:47;8.70;;;4.22;;
20832;SDS011;56075;51.264;7.150;2022-09-03T17:46:36;7.47;;;4.57;;
20832;SDS011;56075;51.264;7.150;2022-09-03T17:52:18;10.05;;;3.70;;
20832;SDS011;56075;51.264;7.150;2022-09-03T17:54:59;4.28;;;3.42;;
20832;SDS011;56075;51.264;7.150;2022-09-03T17:57:45;5.00;;;3.65;;
20832;SDS011;56075;51.264;7.150;2022-09-03T18:00:32;8.38;;;4.18;;
20832;SDS011;56075;51.264;7.150;2022-09-03T18:06:25;7.22;;;3.78;;
20832;SDS011;56075;51.264;7.150;2022-09-03T18:17:47;6.80;;;3.50;;
20832;SDS011;56075;51.264;7.150;2022-09-03T18:20:24;9.45;;;3.75;;
20832;SDS011;56075;51.264;7.150;2022-09-03T18:26:11;6.50;;;3.85;;
20832;SDS011;56075;51.264;7.150;2022-09-03T18:29:15;7.35;;;4.20;;
20832;SDS011;56075;51.264;7.150;2022-09-03T18:32:10;7.70;;;4.38;;
20832;SDS011;56075;51.264;7.150;2022-09-03T18:35:00;7.95;;;4.78;;
20832;SDS011;56075;51.264;7.150;2022-09-03T18:37:50;7.30;;;4.45;;
20832;SDS011;56075;51.264;7.150;2022-09-03T18:43:46;8.20;;;4.22;;
20832;SDS011;56075;51.264;7.150;2022-09-03T18:46:53;7.50;;;4.60;;
20832;SDS011;56075;51.264;7.150;2022-09-03T18:56:00;6.38;;;2.97;;
20832;SDS011;56075;51.264;7.150;2022-09-03T18:59:21;6.93;;;3.28;;
20832;SDS011;56075;51.264;7.150;2022-09-03T19:02:26;3.88;;;2.50;;
20832;SDS011;56075;51.264;7.150;2022-09-03T19:05:34;3.97;;;2.42;;
20832;SDS011;56075;51.264;7.150;2022-09-03T19:09:12;5.50;;;2.70;;
20832;SDS011;56075;51.264;7.150;2022-09-03T19:11:56;4.60;;;2.70;;
20832;SDS011;56075;51.264;7.150;2022-09-03T19:21:35;5.30;;;2.90;;
20832;SDS011;56075;51.264;7.150;2022-09-03T19:24:31;5.38;;;2.70;;
20832;SDS011;56075;51.264;7.150;2022-09-03T19:27:28;6.03;;;2.50;;
20832;SDS011;56075;51.264;7.150;2022-09-03T19:30:33;3.78;;;2.58;;
20832;SDS011;56075;51.264;7.150;2022-09-03T19:37:11;3.33;;;2.20;;
20832;SDS011;56075;51.264;7.150;2022-09-03T19:46:21;3.25;;;2.42;;
20832;SDS011;56075;51.264;7.150;2022-09-03T19:52:48;3.35;;;2.80;;
20832;SDS011;56075;51.264;7.150;2022-09-03T19:55:55;4.88;;;2.60;;
20832;SDS011;56075;51.264;7.150;2022-09-03T19:58:48;4.97;;;2.53;;
20832;SDS011;56075;51.264;7.150;2022-09-03T20:01:44;3.90;;;2.10;;
20832;SDS011;56075;51.264;7.150;2022-09-03T20:04:36;3.55;;;2.50;;
20832;SDS011;56075;51.264;7.150;2022-09-03T20:07:32;3.55;;;2.65;;
20832;SDS011;56075;51.264;7.150;2022-09-03T20:10:24;3.45;;;2.53;;
20832;SDS011;56075;51.264;7.150;2022-09-03T20:21:58;7.25;;;4.22;;
20832;SDS011;56075;51.264;7.150;2022-09-03T20:24:58;5.60;;;3.53;;
20832;SDS011;56075;51.264;7.150;2022-09-03T20:30:33;6.55;;;3.95;;
20832;SDS011;56075;51.264;7.150;2022-09-03T20:33:33;6.03;;;3.88;;
20832;SDS011;56075;51.264;7.150;2022-09-03T20:36:16;7.95;;;3.85;;
20832;SDS011;56075;51.264;7.150;2022-09-03T20:39:05;6.32;;;4.07;;
20832;SDS011;56075;51.264;7.150;2022-09-03T20:42:15;10.15;;;3.83;;
20832;SDS011;56075;51.264;7.150;2022-09-03T20:44:48;6.55;;;3.78;;
20832;SDS011;56075;51.264;7.150;2022-09-03T20:47:44;5.38;;;3.58;;
20832;SDS011;56075;51.264;7.150;2022-09-03T20:50:39;5.35;;;3.78;;